sensor_id;sensor_type;location;lat;lon;timestamp;P1;durP1;ratioP1;P2;durP2;ratioP2
55368;SDS011;41247;49.736;8.752;2023-06-24T00:01:23;8.70;;;5.07;;
55368;SDS011;41247;49.736;8.752;2023-06-24T00:05:05;8.82;;;5.10;;
55368;SDS011;41247;49.736;8.752;2023-06-24T00:08:46;9.55;;;5.00;;
55368;SDS011;41247;49.736;8.752;2023-06-24T00:12:27;8.48;;;5.07;;
55368;SDS011;41247;49.736;8.752;2023-06-24T00:16:08;7.60;;;5.25;;
55368;SDS011;41247;49.736;8.752;2023-06-24T00:19:49;6.80;;;5.20;;
55368;SDS011;41247;49.736;8.752;2023-06-24T00:23:31;5.70;;;4.80;;
55368;SDS011;41247;49.736;8.752;2023-06-24T00:27:12;5.57;;;4.65;;
55368;SDS011;41247;49.736;8.752;2023-06-24T00:30:52;5.40;;;4.78;;
55368;SDS011;41247;49.736;8.752;2023-06-24T00:34:34;7.00;;;5.63;;
55368;SDS011;41247;49.736;8.752;2023-06-24T00:38:14;6.35;;;5.05;;
55368;SDS011;41247;49.736;8.752;2023-06-24T00:41:55;6.30;;;5.03;;
55368;SDS011;41247;49.736;8.752;2023-06-24T00:45:35;9.05;;;5.13;;
55368;SDS011;41247;49.736;8.752;2023-06-24T00:49:17;7.40;;;5.00;;
55368;SDS011;41247;49.736;8.752;2023-06-24T00:52:57;5.95;;;5.18;;
55368;SDS011;41247;49.736;8.752;2023-06-24T00:56:38;6.95;;;5.05;;
55368;SDS011;41247;49.736;8.752;2023-06-24T01:00:19;5.50;;;5.00;;
55368;SDS011;41247;49.736;8.752;2023-06-24T01:04:02;8.32;;;5.50;;
55368;SDS011;41247;49.736;8.752;2023-06-24T01:07:43;6.70;;;5.05;;
55368;SDS011;41247;49.736;8.752;2023-06-24T01:11:25;8.85;;;4.70;;
55368;SDS011;41247;49.736;8.752;2023-06-24T01:15:07;8.35;;;5.30;;
55368;SDS011;41247;49.736;8.752;2023-06-24T01:18:49;9.57;;;5.07;;
55368;SDS011;41247;49.736;8.752;2023-06-24T01:34:42;6.45;;;5.07;;
55368;SDS011;41247;49.736;8.752;2023-06-24T01:38:36;8.23;;;5.28;;
55368;SDS011;41247;49.736;8.752;2023-06-24T01:42:27;7.38;;;5.22;;
55368;SDS011;41247;49.736;8.752;2023-06-24T01:46:09;6.78;;;5.38;;
55368;SDS011;41247;49.736;8.752;2023-06-24T01:49:52;8.48;;;5.15;;
55368;SDS011;41247;49.736;8.752;2023-06-24T01:53:35;5.60;;;4.72;;
55368;SDS011;41247;49.736;8.752;2023-06-24T01:57:19;6.57;;;5.32;;
55368;SDS011;41247;49.736;8.752;2023-06-24T02:01:02;7.35;;;5.60;;
55368;SDS011;41247;49.736;8.752;2023-06-24T02:04:43;8.43;;;5.50;;
55368;SDS011;41247;49.736;8.752;2023-06-24T02:08:25;7.25;;;5.10;;
55368;SDS011;41247;49.736;8.752;2023-06-24T02:15:50;7.75;;;4.88;;
55368;SDS011;41247;49.736;8.752;2023-06-24T02:19:32;6.55;;;5.25;;
55368;SDS011;41247;49.736;8.752;2023-06-24T02:23:13;7.93;;;5.15;;
55368;SDS011;41247;49.736;8.752;2023-06-24T02:26:55;8.60;;;5.43;;
55368;SDS011;41247;49.736;8.752;2023-06-24T02:30:37;6.63;;;5.50;;
55368;SDS011;41247;49.736;8.752;2023-06-24T02:34:18;7.55;;;5.35;;
55368;SDS011;41247;49.736;8.752;2023-06-24T02:37:59;8.75;;;6.15;;
55368;SDS011;41247;49.736;8.752;2023-06-24T02:41:40;6.93;;;5.60;;
55368;SDS011;41247;49.736;8.752;2023-06-24T02:45:21;7.22;;;5.60;;
55368;SDS011;41247;49.736;8.752;2023-06-24T02:49:02;7.55;;;5.47;;
55368;SDS011;41247;49.736;8.752;2023-06-24T02:52:43;8.93;;;5.20;;
55368;SDS011;41247;49.736;8.752;2023-06-24T02:56:25;8.65;;;6.25;;
55368;SDS011;41247;49.736;8.752;2023-06-24T03:00:07;9.13;;;5.95;;
55368;SDS011;41247;49.736;8.752;2023-06-24T03:03:54;10.25;;;5.63;;
55368;SDS011;41247;49.736;8.752;2023-06-24T03:07:37;7.15;;;5.72;;
55368;SDS011;41247;49.736;8.752;2023-06-24T03:11:18;8.53;;;5.90;;
55368;SDS011;41247;49.736;8.752;2023-06-24T03:14:58;7.78;;;5.70;;
55368;SDS011;41247;49.736;8.752;2023-06-24T03:18:41;8.63;;;6.03;;
55368;SDS011;41247;49.736;8.752;2023-06-24T03:22:23;9.75;;;6.15;;
55368;SDS011;41247;49.736;8.752;2023-06-24T03:26:04;9.13;;;6.07;;
55368;SDS011;41247;49.736;8.752;2023-06-24T03:29:47;9.02;;;5.90;;
55368;SDS011;41247;49.736;8.752;2023-06-24T03:33:28;8.88;;;5.82;;
55368;SDS011;41247;49.736;8.752;2023-06-24T03:37:08;9.50;;;5.88;;
55368;SDS011;41247;49.736;8.752;2023-06-24T03:40:49;6.70;;;5.32;;
55368;SDS011;41247;49.736;8.752;2023-06-24T03:44:29;9.18;;;6.47;;
55368;SDS011;41247;49.736;8.752;2023-06-24T03:48:10;9.13;;;6.40;;
55368;SDS011;41247;49.736;8.752;2023-06-24T03:51:51;10.98;;;6.13;;
55368;SDS011;41247;49.736;8.752;2023-06-24T03:55:32;8.98;;;6.35;;
55368;SDS011;41247;49.736;8.752;2023-06-24T03:59:12;8.63;;;5.75;;
55368;SDS011;41247;49.736;8.752;2023-06-24T04:02:53;9.18;;;6.10;;
55368;SDS011;41247;49.736;8.752;2023-06-24T04:06:33;7.28;;;5.90;;
55368;SDS011;41247;49.736;8.752;2023-06-24T04:10:15;11.40;;;6.10;;
55368;SDS011;41247;49.736;8.752;2023-06-24T04:13:57;11.20;;;6.03;;
55368;SDS011;41247;49.736;8.752;2023-06-24T04:17:37;7.70;;;5.82;;
55368;SDS011;41247;49.736;8.752;2023-06-24T04:21:18;9.05;;;6.15;;
55368;SDS011;41247;49.736;8.752;2023-06-24T04:24:58;7.95;;;5.75;;
55368;SDS011;41247;49.736;8.752;2023-06-24T04:28:39;7.38;;;5.47;;
55368;SDS011;41247;49.736;8.752;2023-06-24T04:32:20;13.10;;;6.22;;
55368;SDS011;41247;49.736;8.752;2023-06-24T04:39:44;6.97;;;5.70;;
55368;SDS011;41247;49.736;8.752;2023-06-24T04:43:25;7.90;;;6.00;;
55368;SDS011;41247;49.736;8.752;2023-06-24T04:47:06;8.82;;;6.63;;
55368;SDS011;41247;49.736;8.752;2023-06-24T04:50:47;8.30;;;6.13;;
55368;SDS011;41247;49.736;8.752;2023-06-24T04:54:29;7.30;;;5.72;;
55368;SDS011;41247;49.736;8.752;2023-06-24T04:58:10;9.68;;;5.95;;
55368;SDS011;41247;49.736;8.752;2023-06-24T05:01:51;8.20;;;5.72;;
55368;SDS011;41247;49.736;8.752;2023-06-24T05:05:31;6.85;;;5.57;;
55368;SDS011;41247;49.736;8.752;2023-06-24T05:09:12;7.15;;;5.35;;
55368;SDS011;41247;49.736;8.752;2023-06-24T05:16:38;8.73;;;5.60;;
55368;SDS011;41247;49.736;8.752;2023-06-24T05:20:19;8.25;;;5.63;;
55368;SDS011;41247;49.736;8.752;2023-06-24T05:23:59;7.57;;;5.82;;
55368;SDS011;41247;49.736;8.752;2023-06-24T05:27:42;7.72;;;5.95;;
55368;SDS011;41247;49.736;8.752;2023-06-24T05:31:23;6.43;;;5.68;;
55368;SDS011;41247;49.736;8.752;2023-06-24T05:35:03;7.78;;;5.40;;
55368;SDS011;41247;49.736;8.752;2023-06-24T05:38:45;7.63;;;5.70;;
55368;SDS011;41247;49.736;8.752;2023-06-24T05:42:25;8.80;;;5.53;;
55368;SDS011;41247;49.736;8.752;2023-06-24T05:46:06;6.43;;;4.90;;
55368;SDS011;41247;49.736;8.752;2023-06-24T05:49:47;6.85;;;5.50;;
55368;SDS011;41247;49.736;8.752;2023-06-24T05:53:27;8.40;;;5.30;;
55368;SDS011;41247;49.736;8.752;2023-06-24T05:57:09;7.28;;;5.78;;
55368;SDS011;41247;49.736;8.752;2023-06-24T06:00:49;7.28;;;4.93;;
55368;SDS011;41247;49.736;8.752;2023-06-24T06:04:30;7.40;;;5.75;;
55368;SDS011;41247;49.736;8.752;2023-06-24T06:08:11;7.90;;;5.65;;
55368;SDS011;41247;49.736;8.752;2023-06-24T06:11:52;8.98;;;6.18;;
55368;SDS011;41247;49.736;8.752;2023-06-24T06:15:33;7.57;;;6.18;;
55368;SDS011;41247;49.736;8.752;2023-06-24T06:19:14;7.38;;;5.57;;
55368;SDS011;41247;49.736;8.752;2023-06-24T06:22:54;6.82;;;5.55;;
55368;SDS011;41247;49.736;8.752;2023-06-24T06:26:40;6.03;;;4.90;;
55368;SDS011;41247;49.736;8.752;2023-06-24T06:30:24;8.10;;;5.20;;
55368;SDS011;41247;49.736;8.752;2023-06-24T06:34:04;6.72;;;5.10;;
55368;SDS011;41247;49.736;8.752;2023-06-24T06:37:45;6.88;;;4.85;;
55368;SDS011;41247;49.736;8.752;2023-06-24T06:41:25;8.88;;;5.03;;
55368;SDS011;41247;49.736;8.752;2023-06-24T06:45:06;14.77;;;4.70;;
55368;SDS011;41247;49.736;8.752;2023-06-24T06:48:47;8.00;;;5.07;;
55368;SDS011;41247;49.736;8.752;2023-06-24T06:52:27;7.05;;;4.50;;
55368;SDS011;41247;49.736;8.752;2023-06-24T06:56:08;6.30;;;4.53;;
55368;SDS011;41247;49.736;8.752;2023-06-24T06:59:49;7.63;;;4.45;;
55368;SDS011;41247;49.736;8.752;2023-06-24T07:03:30;8.27;;;4.85;;
55368;SDS011;41247;49.736;8.752;2023-06-24T07:07:12;5.78;;;4.43;;
55368;SDS011;41247;49.736;8.752;2023-06-24T07:10:52;6.97;;;4.45;;
55368;SDS011;41247;49.736;8.752;2023-06-24T07:14:33;6.72;;;4.47;;
55368;SDS011;41247;49.736;8.752;2023-06-24T07:18:14;6.05;;;4.78;;
55368;SDS011;41247;49.736;8.752;2023-06-24T07:21:54;11.70;;;5.20;;
55368;SDS011;41247;49.736;8.752;2023-06-24T07:25:36;7.88;;;4.82;;
55368;SDS011;41247;49.736;8.752;2023-06-24T07:29:17;5.93;;;4.20;;
55368;SDS011;41247;49.736;8.752;2023-06-24T07:32:57;5.43;;;3.70;;
55368;SDS011;41247;49.736;8.752;2023-06-24T07:36:38;6.72;;;4.30;;
55368;SDS011;41247;49.736;8.752;2023-06-24T07:40:19;4.40;;;3.78;;
55368;SDS011;41247;49.736;8.752;2023-06-24T07:43:59;5.32;;;4.15;;
55368;SDS011;41247;49.736;8.752;2023-06-24T07:47:40;6.47;;;4.68;;
55368;SDS011;41247;49.736;8.752;2023-06-24T07:51:20;6.97;;;4.40;;
55368;SDS011;41247;49.736;8.752;2023-06-24T07:55:01;6.50;;;4.10;;
55368;SDS011;41247;49.736;8.752;2023-06-24T07:58:42;5.10;;;4.20;;
55368;SDS011;41247;49.736;8.752;2023-06-24T08:02:22;5.57;;;4.20;;
55368;SDS011;41247;49.736;8.752;2023-06-24T08:06:03;10.10;;;4.70;;
55368;SDS011;41247;49.736;8.752;2023-06-24T08:09:44;6.65;;;4.10;;
55368;SDS011;41247;49.736;8.752;2023-06-24T08:13:24;5.55;;;4.13;;
55368;SDS011;41247;49.736;8.752;2023-06-24T08:17:05;7.63;;;4.78;;
55368;SDS011;41247;49.736;8.752;2023-06-24T08:20:45;5.68;;;4.50;;
55368;SDS011;41247;49.736;8.752;2023-06-24T08:24:26;36.28;;;7.45;;
55368;SDS011;41247;49.736;8.752;2023-06-24T08:28:06;11.77;;;5.72;;
55368;SDS011;41247;49.736;8.752;2023-06-24T08:31:47;10.95;;;5.72;;
55368;SDS011;41247;49.736;8.752;2023-06-24T08:35:28;6.53;;;4.82;;
55368;SDS011;41247;49.736;8.752;2023-06-24T08:39:08;7.55;;;4.57;;
55368;SDS011;41247;49.736;8.752;2023-06-24T08:42:49;12.05;;;5.00;;
55368;SDS011;41247;49.736;8.752;2023-06-24T08:46:29;4.43;;;4.03;;
55368;SDS011;41247;49.736;8.752;2023-06-24T08:50:11;5.63;;;3.70;;
55368;SDS011;41247;49.736;8.752;2023-06-24T08:53:52;4.93;;;4.38;;
55368;SDS011;41247;49.736;8.752;2023-06-24T08:57:34;4.82;;;4.13;;
55368;SDS011;41247;49.736;8.752;2023-06-24T09:01:15;7.25;;;4.53;;
55368;SDS011;41247;49.736;8.752;2023-06-24T09:04:57;4.70;;;3.97;;
55368;SDS011;41247;49.736;8.752;2023-06-24T09:08:37;6.78;;;4.97;;
55368;SDS011;41247;49.736;8.752;2023-06-24T09:12:18;7.43;;;4.57;;
55368;SDS011;41247;49.736;8.752;2023-06-24T09:15:59;8.23;;;5.13;;
55368;SDS011;41247;49.736;8.752;2023-06-24T09:19:39;7.45;;;5.13;;
55368;SDS011;41247;49.736;8.752;2023-06-24T09:23:20;5.45;;;4.50;;
55368;SDS011;41247;49.736;8.752;2023-06-24T09:27:07;7.53;;;4.32;;
55368;SDS011;41247;49.736;8.752;2023-06-24T09:30:47;4.05;;;3.65;;
55368;SDS011;41247;49.736;8.752;2023-06-24T09:34:44;5.25;;;4.13;;
55368;SDS011;41247;49.736;8.752;2023-06-24T09:38:36;4.43;;;4.03;;
55368;SDS011;41247;49.736;8.752;2023-06-24T09:42:20;5.93;;;3.90;;
55368;SDS011;41247;49.736;8.752;2023-06-24T09:46:01;4.40;;;3.95;;
55368;SDS011;41247;49.736;8.752;2023-06-24T09:49:43;4.95;;;3.90;;
55368;SDS011;41247;49.736;8.752;2023-06-24T09:53:23;7.32;;;4.90;;
55368;SDS011;41247;49.736;8.752;2023-06-24T09:57:04;6.70;;;5.03;;
55368;SDS011;41247;49.736;8.752;2023-06-24T10:00:46;6.20;;;4.32;;
55368;SDS011;41247;49.736;8.752;2023-06-24T10:04:28;6.85;;;5.32;;
55368;SDS011;41247;49.736;8.752;2023-06-24T10:08:13;6.60;;;4.30;;
55368;SDS011;41247;49.736;8.752;2023-06-24T10:11:53;5.60;;;4.53;;
55368;SDS011;41247;49.736;8.752;2023-06-24T10:15:34;5.53;;;4.72;;
55368;SDS011;41247;49.736;8.752;2023-06-24T10:19:18;5.80;;;5.20;;
55368;SDS011;41247;49.736;8.752;2023-06-24T10:23:05;5.18;;;4.40;;
55368;SDS011;41247;49.736;8.752;2023-06-24T10:26:46;6.40;;;4.28;;
55368;SDS011;41247;49.736;8.752;2023-06-24T10:30:30;6.60;;;4.00;;
55368;SDS011;41247;49.736;8.752;2023-06-24T10:38:20;5.40;;;3.40;;
55368;SDS011;41247;49.736;8.752;2023-06-24T10:46:07;7.32;;;3.40;;
55368;SDS011;41247;49.736;8.752;2023-06-24T10:49:55;3.95;;;3.30;;
55368;SDS011;41247;49.736;8.752;2023-06-24T10:53:35;3.75;;;3.28;;
55368;SDS011;41247;49.736;8.752;2023-06-24T10:57:21;5.30;;;3.47;;
55368;SDS011;41247;49.736;8.752;2023-06-24T11:01:08;4.65;;;3.10;;
55368;SDS011;41247;49.736;8.752;2023-06-24T11:04:53;4.72;;;3.45;;
55368;SDS011;41247;49.736;8.752;2023-06-24T11:08:42;3.78;;;2.90;;
55368;SDS011;41247;49.736;8.752;2023-06-24T11:12:25;6.95;;;3.08;;
55368;SDS011;41247;49.736;8.752;2023-06-24T11:16:13;3.28;;;2.90;;
55368;SDS011;41247;49.736;8.752;2023-06-24T11:19:54;3.17;;;2.90;;
55368;SDS011;41247;49.736;8.752;2023-06-24T11:23:36;4.05;;;2.97;;
55368;SDS011;41247;49.736;8.752;2023-06-24T11:27:31;5.65;;;3.03;;
55368;SDS011;41247;49.736;8.752;2023-06-24T11:31:12;4.07;;;2.80;;
55368;SDS011;41247;49.736;8.752;2023-06-24T11:34:52;5.20;;;3.10;;
55368;SDS011;41247;49.736;8.752;2023-06-24T11:38:35;6.70;;;2.72;;
55368;SDS011;41247;49.736;8.752;2023-06-24T11:42:16;2.93;;;2.53;;
55368;SDS011;41247;49.736;8.752;2023-06-24T11:45:57;3.05;;;2.60;;
55368;SDS011;41247;49.736;8.752;2023-06-24T11:49:59;2.97;;;2.65;;
55368;SDS011;41247;49.736;8.752;2023-06-24T11:53:42;3.50;;;2.83;;
55368;SDS011;41247;49.736;8.752;2023-06-24T11:57:46;3.65;;;2.90;;
55368;SDS011;41247;49.736;8.752;2023-06-24T12:01:58;4.50;;;3.08;;
55368;SDS011;41247;49.736;8.752;2023-06-24T12:05:40;3.58;;;2.55;;
55368;SDS011;41247;49.736;8.752;2023-06-24T12:09:20;2.50;;;2.10;;
55368;SDS011;41247;49.736;8.752;2023-06-24T12:13:02;4.00;;;2.53;;
55368;SDS011;41247;49.736;8.752;2023-06-24T12:16:44;3.50;;;2.63;;
55368;SDS011;41247;49.736;8.752;2023-06-24T12:24:10;3.03;;;2.50;;
55368;SDS011;41247;49.736;8.752;2023-06-24T12:27:50;3.75;;;2.35;;
55368;SDS011;41247;49.736;8.752;2023-06-24T12:31:31;4.72;;;2.40;;
55368;SDS011;41247;49.736;8.752;2023-06-24T12:35:12;2.85;;;2.20;;
55368;SDS011;41247;49.736;8.752;2023-06-24T12:38:52;3.15;;;2.72;;
55368;SDS011;41247;49.736;8.752;2023-06-24T12:42:33;2.45;;;2.25;;
55368;SDS011;41247;49.736;8.752;2023-06-24T12:46:13;2.88;;;2.33;;
55368;SDS011;41247;49.736;8.752;2023-06-24T12:49:54;2.70;;;2.47;;
55368;SDS011;41247;49.736;8.752;2023-06-24T12:53:35;3.13;;;2.45;;
55368;SDS011;41247;49.736;8.752;2023-06-24T12:57:15;4.32;;;2.47;;
55368;SDS011;41247;49.736;8.752;2023-06-24T13:00:56;3.78;;;2.25;;
55368;SDS011;41247;49.736;8.752;2023-06-24T13:04:36;3.05;;;2.28;;
55368;SDS011;41247;49.736;8.752;2023-06-24T13:08:17;4.80;;;2.45;;
55368;SDS011;41247;49.736;8.752;2023-06-24T13:11:58;4.90;;;2.70;;
55368;SDS011;41247;49.736;8.752;2023-06-24T13:15:38;3.35;;;2.70;;
55368;SDS011;41247;49.736;8.752;2023-06-24T13:19:19;4.38;;;2.60;;
55368;SDS011;41247;49.736;8.752;2023-06-24T13:22:59;4.97;;;2.65;;
55368;SDS011;41247;49.736;8.752;2023-06-24T13:26:41;2.88;;;2.63;;
55368;SDS011;41247;49.736;8.752;2023-06-24T13:30:21;3.63;;;2.40;;
55368;SDS011;41247;49.736;8.752;2023-06-24T13:34:02;4.70;;;2.78;;
55368;SDS011;41247;49.736;8.752;2023-06-24T13:37:43;3.35;;;2.47;;
55368;SDS011;41247;49.736;8.752;2023-06-24T13:41:23;2.70;;;2.50;;
55368;SDS011;41247;49.736;8.752;2023-06-24T13:45:04;2.47;;;2.28;;
55368;SDS011;41247;49.736;8.752;2023-06-24T13:48:45;3.58;;;2.75;;
55368;SDS011;41247;49.736;8.752;2023-06-24T13:52:26;4.30;;;2.63;;
55368;SDS011;41247;49.736;8.752;2023-06-24T13:56:06;3.53;;;2.70;;
55368;SDS011;41247;49.736;8.752;2023-06-24T13:59:47;4.50;;;2.78;;
55368;SDS011;41247;49.736;8.752;2023-06-24T14:03:28;4.50;;;2.70;;
55368;SDS011;41247;49.736;8.752;2023-06-24T14:07:08;2.65;;;2.20;;
55368;SDS011;41247;49.736;8.752;2023-06-24T14:10:49;3.15;;;2.75;;
55368;SDS011;41247;49.736;8.752;2023-06-24T14:14:30;3.88;;;2.30;;
55368;SDS011;41247;49.736;8.752;2023-06-24T14:18:10;2.95;;;2.65;;
55368;SDS011;41247;49.736;8.752;2023-06-24T14:21:51;3.17;;;2.38;;
55368;SDS011;41247;49.736;8.752;2023-06-24T14:25:32;2.95;;;2.70;;
55368;SDS011;41247;49.736;8.752;2023-06-24T14:29:12;5.90;;;2.50;;
55368;SDS011;41247;49.736;8.752;2023-06-24T14:32:53;2.72;;;2.30;;
55368;SDS011;41247;49.736;8.752;2023-06-24T14:36:34;2.25;;;1.95;;
55368;SDS011;41247;49.736;8.752;2023-06-24T14:40:14;5.93;;;2.60;;
55368;SDS011;41247;49.736;8.752;2023-06-24T14:43:55;3.08;;;2.00;;
55368;SDS011;41247;49.736;8.752;2023-06-24T14:47:35;3.05;;;2.20;;
55368;SDS011;41247;49.736;8.752;2023-06-24T14:51:16;3.97;;;2.22;;
55368;SDS011;41247;49.736;8.752;2023-06-24T14:54:57;2.70;;;2.20;;
55368;SDS011;41247;49.736;8.752;2023-06-24T14:58:37;3.33;;;2.23;;
55368;SDS011;41247;49.736;8.752;2023-06-24T15:02:18;2.67;;;2.30;;
55368;SDS011;41247;49.736;8.752;2023-06-24T15:05:58;2.53;;;2.10;;
55368;SDS011;41247;49.736;8.752;2023-06-24T15:09:39;2.93;;;2.10;;
55368;SDS011;41247;49.736;8.752;2023-06-24T15:13:20;2.73;;;2.10;;
55368;SDS011;41247;49.736;8.752;2023-06-24T15:17:00;2.33;;;2.07;;
55368;SDS011;41247;49.736;8.752;2023-06-24T15:20:41;2.70;;;2.33;;
55368;SDS011;41247;49.736;8.752;2023-06-24T15:24:21;4.43;;;2.40;;
55368;SDS011;41247;49.736;8.752;2023-06-24T15:28:02;3.23;;;2.13;;
55368;SDS011;41247;49.736;8.752;2023-06-24T15:31:43;3.17;;;2.33;;
55368;SDS011;41247;49.736;8.752;2023-06-24T15:35:23;3.37;;;2.60;;
55368;SDS011;41247;49.736;8.752;2023-06-24T15:39:04;3.77;;;2.60;;
55368;SDS011;41247;49.736;8.752;2023-06-24T15:42:45;2.77;;;2.07;;
55368;SDS011;41247;49.736;8.752;2023-06-24T15:46:25;2.38;;;2.17;;
55368;SDS011;41247;49.736;8.752;2023-06-24T15:50:06;4.00;;;2.55;;
55368;SDS011;41247;49.736;8.752;2023-06-24T15:53:47;3.28;;;2.97;;
55368;SDS011;41247;49.736;8.752;2023-06-24T15:57:28;4.25;;;3.00;;
55368;SDS011;41247;49.736;8.752;2023-06-24T16:01:08;5.70;;;2.90;;
55368;SDS011;41247;49.736;8.752;2023-06-24T16:04:49;5.95;;;2.75;;
55368;SDS011;41247;49.736;8.752;2023-06-24T16:08:29;3.30;;;3.00;;
55368;SDS011;41247;49.736;8.752;2023-06-24T16:12:10;2.75;;;2.55;;
55368;SDS011;41247;49.736;8.752;2023-06-24T16:15:51;3.90;;;2.47;;
55368;SDS011;41247;49.736;8.752;2023-06-24T16:19:31;3.20;;;2.90;;
55368;SDS011;41247;49.736;8.752;2023-06-24T16:23:12;3.92;;;2.70;;
55368;SDS011;41247;49.736;8.752;2023-06-24T16:26:52;4.47;;;3.10;;
55368;SDS011;41247;49.736;8.752;2023-06-24T16:30:33;3.42;;;3.03;;
55368;SDS011;41247;49.736;8.752;2023-06-24T16:34:13;4.95;;;3.20;;
55368;SDS011;41247;49.736;8.752;2023-06-24T16:37:54;4.60;;;3.15;;
55368;SDS011;41247;49.736;8.752;2023-06-24T16:41:35;4.35;;;3.42;;
55368;SDS011;41247;49.736;8.752;2023-06-24T16:45:15;4.18;;;3.38;;
55368;SDS011;41247;49.736;8.752;2023-06-24T16:48:56;4.30;;;3.50;;
55368;SDS011;41247;49.736;8.752;2023-06-24T16:52:37;5.32;;;3.50;;
55368;SDS011;41247;49.736;8.752;2023-06-24T16:56:17;4.25;;;3.85;;
55368;SDS011;41247;49.736;8.752;2023-06-24T16:59:58;3.97;;;3.40;;
55368;SDS011;41247;49.736;8.752;2023-06-24T17:03:38;3.72;;;3.03;;
55368;SDS011;41247;49.736;8.752;2023-06-24T17:07:22;9.00;;;3.42;;
55368;SDS011;41247;49.736;8.752;2023-06-24T17:11:03;5.07;;;3.38;;
55368;SDS011;41247;49.736;8.752;2023-06-24T17:14:43;4.20;;;3.47;;
55368;SDS011;41247;49.736;8.752;2023-06-24T17:18:24;3.95;;;3.15;;
55368;SDS011;41247;49.736;8.752;2023-06-24T17:22:04;5.38;;;3.85;;
55368;SDS011;41247;49.736;8.752;2023-06-24T17:25:45;4.72;;;3.58;;
55368;SDS011;41247;49.736;8.752;2023-06-24T17:29:26;4.65;;;3.30;;
55368;SDS011;41247;49.736;8.752;2023-06-24T17:33:07;3.78;;;3.30;;
55368;SDS011;41247;49.736;8.752;2023-06-24T17:36:47;3.92;;;3.38;;
55368;SDS011;41247;49.736;8.752;2023-06-24T17:40:28;5.82;;;3.67;;
55368;SDS011;41247;49.736;8.752;2023-06-24T17:44:08;3.60;;;3.30;;
55368;SDS011;41247;49.736;8.752;2023-06-24T17:47:49;3.38;;;3.08;;
55368;SDS011;41247;49.736;8.752;2023-06-24T17:51:29;4.35;;;3.95;;
55368;SDS011;41247;49.736;8.752;2023-06-24T17:55:10;5.00;;;3.55;;
55368;SDS011;41247;49.736;8.752;2023-06-24T17:58:51;4.15;;;3.75;;
55368;SDS011;41247;49.736;8.752;2023-06-24T18:02:31;4.35;;;3.70;;
55368;SDS011;41247;49.736;8.752;2023-06-24T18:06:12;6.38;;;3.80;;
55368;SDS011;41247;49.736;8.752;2023-06-24T18:09:53;4.32;;;3.92;;
55368;SDS011;41247;49.736;8.752;2023-06-24T18:13:35;5.45;;;3.83;;
55368;SDS011;41247;49.736;8.752;2023-06-24T18:17:16;6.70;;;3.90;;
55368;SDS011;41247;49.736;8.752;2023-06-24T18:20:56;5.78;;;3.97;;
55368;SDS011;41247;49.736;8.752;2023-06-24T18:24:37;6.80;;;4.00;;
55368;SDS011;41247;49.736;8.752;2023-06-24T18:28:18;5.05;;;4.10;;
55368;SDS011;41247;49.736;8.752;2023-06-24T18:31:58;5.55;;;3.85;;
55368;SDS011;41247;49.736;8.752;2023-06-24T18:35:39;5.80;;;4.25;;
55368;SDS011;41247;49.736;8.752;2023-06-24T18:39:19;6.68;;;4.53;;
55368;SDS011;41247;49.736;8.752;2023-06-24T18:43:00;6.03;;;4.03;;
55368;SDS011;41247;49.736;8.752;2023-06-24T18:46:41;6.03;;;4.35;;
55368;SDS011;41247;49.736;8.752;2023-06-24T18:50:21;5.43;;;4.30;;
55368;SDS011;41247;49.736;8.752;2023-06-24T18:54:02;6.22;;;4.50;;
55368;SDS011;41247;49.736;8.752;2023-06-24T18:57:42;5.28;;;4.20;;
55368;SDS011;41247;49.736;8.752;2023-06-24T19:01:23;5.00;;;4.47;;
55368;SDS011;41247;49.736;8.752;2023-06-24T19:05:04;4.55;;;4.03;;
55368;SDS011;41247;49.736;8.752;2023-06-24T19:08:44;5.50;;;4.07;;
55368;SDS011;41247;49.736;8.752;2023-06-24T19:12:25;5.00;;;4.35;;
55368;SDS011;41247;49.736;8.752;2023-06-24T19:16:06;7.38;;;3.83;;
55368;SDS011;41247;49.736;8.752;2023-06-24T19:19:46;5.30;;;4.20;;
55368;SDS011;41247;49.736;8.752;2023-06-24T19:23:27;6.65;;;4.28;;
55368;SDS011;41247;49.736;8.752;2023-06-24T19:27:07;5.97;;;4.25;;
55368;SDS011;41247;49.736;8.752;2023-06-24T19:30:48;6.07;;;4.35;;
55368;SDS011;41247;49.736;8.752;2023-06-24T19:34:28;6.97;;;4.28;;
55368;SDS011;41247;49.736;8.752;2023-06-24T19:38:09;4.97;;;4.30;;
55368;SDS011;41247;49.736;8.752;2023-06-24T19:41:50;4.60;;;4.07;;
55368;SDS011;41247;49.736;8.752;2023-06-24T19:45:31;5.75;;;3.95;;
55368;SDS011;41247;49.736;8.752;2023-06-24T19:49:11;6.80;;;4.50;;
55368;SDS011;41247;49.736;8.752;2023-06-24T19:52:52;5.95;;;4.72;;
55368;SDS011;41247;49.736;8.752;2023-06-24T19:56:32;5.38;;;4.03;;
55368;SDS011;41247;49.736;8.752;2023-06-24T20:00:13;5.00;;;4.15;;
55368;SDS011;41247;49.736;8.752;2023-06-24T20:03:54;6.22;;;4.32;;
55368;SDS011;41247;49.736;8.752;2023-06-24T20:07:35;5.53;;;4.20;;
55368;SDS011;41247;49.736;8.752;2023-06-24T20:11:15;5.13;;;4.40;;
55368;SDS011;41247;49.736;8.752;2023-06-24T20:14:56;6.90;;;4.35;;
55368;SDS011;41247;49.736;8.752;2023-06-24T20:18:36;6.95;;;4.88;;
55368;SDS011;41247;49.736;8.752;2023-06-24T20:22:17;6.07;;;4.07;;
55368;SDS011;41247;49.736;8.752;2023-06-24T20:25:58;6.65;;;4.35;;
55368;SDS011;41247;49.736;8.752;2023-06-24T20:29:38;6.53;;;4.07;;
55368;SDS011;41247;49.736;8.752;2023-06-24T20:33:19;5.30;;;4.13;;
55368;SDS011;41247;49.736;8.752;2023-06-24T20:36:59;4.70;;;4.20;;
55368;SDS011;41247;49.736;8.752;2023-06-24T20:40:40;5.20;;;4.00;;
55368;SDS011;41247;49.736;8.752;2023-06-24T20:44:20;6.35;;;4.40;;
55368;SDS011;41247;49.736;8.752;2023-06-24T20:48:01;6.35;;;4.15;;
55368;SDS011;41247;49.736;8.752;2023-06-24T20:51:42;5.47;;;4.57;;
55368;SDS011;41247;49.736;8.752;2023-06-24T20:55:22;5.13;;;4.30;;
55368;SDS011;41247;49.736;8.752;2023-06-24T20:59:03;6.53;;;4.50;;
55368;SDS011;41247;49.736;8.752;2023-06-24T21:02:44;5.95;;;4.60;;
55368;SDS011;41247;49.736;8.752;2023-06-24T21:06:24;5.72;;;4.82;;
55368;SDS011;41247;49.736;8.752;2023-06-24T21:10:05;5.30;;;4.55;;
55368;SDS011;41247;49.736;8.752;2023-06-24T21:13:46;5.10;;;4.43;;
55368;SDS011;41247;49.736;8.752;2023-06-24T21:17:26;5.85;;;4.43;;
55368;SDS011;41247;49.736;8.752;2023-06-24T21:21:07;7.80;;;4.57;;
55368;SDS011;41247;49.736;8.752;2023-06-24T21:24:48;6.15;;;4.53;;
55368;SDS011;41247;49.736;8.752;2023-06-24T21:28:28;5.63;;;4.68;;
55368;SDS011;41247;49.736;8.752;2023-06-24T21:32:09;5.90;;;4.45;;
55368;SDS011;41247;49.736;8.752;2023-06-24T21:35:49;5.28;;;4.63;;
55368;SDS011;41247;49.736;8.752;2023-06-24T21:39:30;5.35;;;4.35;;
55368;SDS011;41247;49.736;8.752;2023-06-24T21:43:11;4.90;;;4.40;;
55368;SDS011;41247;49.736;8.752;2023-06-24T21:46:51;5.13;;;4.40;;
55368;SDS011;41247;49.736;8.752;2023-06-24T21:50:32;8.60;;;5.07;;
55368;SDS011;41247;49.736;8.752;2023-06-24T21:54:12;6.03;;;4.80;;
55368;SDS011;41247;49.736;8.752;2023-06-24T21:57:53;7.47;;;4.78;;
55368;SDS011;41247;49.736;8.752;2023-06-24T22:01:33;5.10;;;4.22;;
55368;SDS011;41247;49.736;8.752;2023-06-24T22:05:14;6.40;;;4.93;;
55368;SDS011;41247;49.736;8.752;2023-06-24T22:08:55;7.15;;;4.65;;
55368;SDS011;41247;49.736;8.752;2023-06-24T22:12:35;5.57;;;4.55;;
55368;SDS011;41247;49.736;8.752;2023-06-24T22:16:16;6.15;;;5.00;;
55368;SDS011;41247;49.736;8.752;2023-06-24T22:19:57;5.60;;;4.43;;
55368;SDS011;41247;49.736;8.752;2023-06-24T22:23:37;6.63;;;4.65;;
55368;SDS011;41247;49.736;8.752;2023-06-24T22:27:18;6.80;;;4.85;;
55368;SDS011;41247;49.736;8.752;2023-06-24T22:30:59;5.97;;;4.38;;
55368;SDS011;41247;49.736;8.752;2023-06-24T22:34:39;5.07;;;4.20;;
55368;SDS011;41247;49.736;8.752;2023-06-24T22:38:20;5.10;;;4.60;;
55368;SDS011;41247;49.736;8.752;2023-06-24T22:42:00;6.45;;;5.20;;
55368;SDS011;41247;49.736;8.752;2023-06-24T22:45:41;5.88;;;4.57;;
55368;SDS011;41247;49.736;8.752;2023-06-24T22:49:22;6.88;;;4.85;;